createdAt,value
2023-01-28T00:01:26.157Z,21.17
2023-01-28T00:03:56.968Z,20.90
2023-01-28T00:06:27.986Z,21.45
2023-01-28T00:08:58.885Z,18.30
2023-01-28T00:11:27.706Z,20.00
2023-01-28T00:13:58.531Z,21.65
2023-01-28T00:16:27.408Z,19.17
2023-01-28T00:18:59.657Z,17.03
2023-01-28T00:21:35.394Z,19.35
2023-01-28T00:24:07.055Z,13.50
2023-01-28T00:26:38.787Z,16.98
2023-01-28T00:29:07.768Z,15.00
2023-01-28T00:31:41.627Z,15.30
2023-01-28T00:34:11.353Z,11.30
2023-01-28T00:36:45.177Z,9.80
2023-01-28T00:39:18.117Z,10.38
2023-01-28T00:41:46.800Z,13.20
2023-01-28T00:44:16.808Z,12.05
2023-01-28T00:46:49.459Z,11.23
2023-01-28T00:49:20.885Z,13.02
2023-01-28T00:51:51.755Z,12.55
2023-01-28T00:54:21.846Z,12.43
2023-01-28T00:56:51.777Z,10.45
2023-01-28T00:59:20.079Z,10.07
2023-01-28T01:01:49.668Z,10.27
2023-01-28T01:04:26.455Z,9.75
2023-01-28T01:06:56.313Z,13.60
2023-01-28T01:09:24.935Z,8.13
2023-01-28T01:11:53.924Z,10.80
2023-01-28T01:14:22.671Z,11.60
2023-01-28T01:16:51.514Z,10.63
2023-01-28T01:19:23.048Z,8.43
2023-01-28T01:21:52.765Z,10.45
2023-01-28T01:24:22.228Z,8.25
2023-01-28T01:26:57.422Z,7.30
2023-01-28T01:29:26.002Z,10.50
2023-01-28T01:31:58.278Z,9.68
2023-01-28T01:34:27.541Z,10.60
2023-01-28T01:37:03.874Z,8.30
2023-01-28T01:39:34.229Z,9.43
2023-01-28T01:42:03.788Z,8.93
2023-01-28T01:44:57.465Z,9.65
2023-01-28T01:47:34.320Z,11.85
2023-01-28T01:50:05.449Z,10.05
2023-01-28T01:52:38.727Z,10.32
2023-01-28T01:55:10.276Z,12.48
2023-01-28T01:57:41.756Z,11.52
2023-01-28T02:00:11.026Z,13.90
2023-01-28T02:02:47.788Z,16.80
2023-01-28T02:05:20.316Z,18.45
2023-01-28T02:07:54.990Z,20.33
2023-01-28T02:10:26.955Z,23.92
2023-01-28T02:12:57.958Z,25.08
2023-01-28T02:15:29.830Z,20.77
2023-01-28T02:17:58.574Z,20.02
2023-01-28T02:20:30.449Z,20.25
2023-01-28T02:23:18.995Z,17.37
2023-01-28T02:26:09.590Z,18.35
2023-01-28T02:28:42.057Z,15.63
2023-01-28T02:31:15.507Z,17.48
2023-01-28T02:36:18.881Z,18.80
2023-01-28T02:38:49.468Z,17.65
2023-01-28T02:41:26.807Z,20.48
2023-01-28T02:43:55.030Z,18.50
2023-01-28T02:46:44.539Z,21.65
2023-01-28T02:49:22.014Z,23.80
2023-01-28T02:51:58.945Z,21.15
2023-01-28T02:54:29.709Z,24.45
2023-01-28T02:56:57.790Z,25.55
2023-01-28T02:59:36.648Z,23.30
2023-01-28T03:05:01.452Z,25.02
2023-01-28T03:10:02.088Z,22.05
2023-01-28T03:12:59.120Z,22.35
2023-01-28T03:15:48.242Z,27.50
2023-01-28T03:18:40.717Z,19.90
2023-01-28T03:21:27.325Z,20.85
2023-01-28T03:24:25.125Z,22.35
2023-01-28T03:27:22.235Z,20.98
2023-01-28T03:30:20.227Z,22.55
2023-01-28T03:33:20.177Z,25.27
2023-01-28T03:36:08.824Z,24.92
2023-01-28T03:38:42.131Z,19.63
2023-01-28T03:41:13.451Z,19.00
2023-01-28T03:43:45.334Z,20.52
2023-01-28T03:46:14.305Z,16.73
2023-01-28T03:48:42.802Z,18.60
2023-01-28T03:51:13.584Z,19.85
2023-01-28T03:53:45.604Z,23.33
2023-01-28T03:56:26.093Z,17.48
2023-01-28T03:58:57.188Z,25.45
2023-01-28T04:01:26.415Z,17.08
2023-01-28T04:03:57.311Z,18.02
2023-01-28T04:06:30.984Z,21.10
2023-01-28T04:09:13.085Z,17.50
2023-01-28T04:11:56.295Z,17.35
2023-01-28T04:14:35.831Z,14.82
2023-01-28T04:17:15.948Z,17.85
2023-01-28T04:19:48.860Z,19.48
2023-01-28T04:22:21.041Z,17.45
2023-01-28T04:24:51.076Z,15.70
2023-01-28T04:27:20.661Z,14.95
2023-01-28T04:29:52.554Z,16.95
2023-01-28T04:32:54.321Z,17.95
2023-01-28T04:35:49.063Z,12.38
2023-01-28T04:38:44.424Z,13.82
2023-01-28T04:41:51.161Z,15.20
2023-01-28T04:44:31.723Z,14.35
2023-01-28T04:47:11.484Z,14.38
2023-01-28T04:49:58.196Z,14.35
2023-01-28T04:52:46.702Z,15.63
2023-01-28T04:55:25.315Z,15.00
2023-01-28T04:57:56.586Z,20.15
2023-01-28T05:00:26.068Z,16.05
2023-01-28T05:03:07.538Z,12.90
2023-01-28T05:05:36.509Z,15.00
2023-01-28T05:08:19.052Z,15.45
2023-01-28T05:10:49.133Z,13.70
2023-01-28T05:13:19.753Z,11.77
2023-01-28T05:15:53.991Z,16.75
2023-01-28T05:18:22.746Z,12.73
2023-01-28T05:21:04.714Z,14.80
2023-01-28T05:23:35.398Z,14.80
2023-01-28T05:26:06.287Z,13.98
2023-01-28T05:28:38.622Z,14.93
2023-01-28T05:31:11.257Z,14.18
2023-01-28T05:33:40.273Z,15.52
2023-01-28T05:36:12.499Z,17.02
2023-01-28T05:38:45.332Z,21.33
2023-01-28T05:41:13.708Z,13.50
2023-01-28T05:43:47.407Z,19.17
2023-01-28T05:46:34.802Z,17.95
2023-01-28T05:49:20.076Z,21.67
2023-01-28T05:52:09.464Z,20.40
2023-01-28T05:54:38.056Z,19.90
2023-01-28T05:57:06.327Z,17.20
2023-01-28T05:59:36.555Z,16.85
2023-01-28T06:02:05.115Z,20.40
2023-01-28T06:04:33.812Z,16.15
2023-01-28T06:07:05.220Z,19.80
2023-01-28T06:09:34.392Z,18.02
2023-01-28T06:12:04.600Z,16.38
2023-01-28T06:14:39.607Z,13.38
2023-01-28T06:17:35.355Z,13.82
2023-01-28T06:22:44.324Z,13.77
2023-01-28T06:25:13.274Z,19.75
2023-01-28T06:27:44.109Z,15.70
2023-01-28T06:30:15.567Z,16.20
2023-01-28T06:32:56.189Z,14.77
2023-01-28T06:35:27.249Z,18.45
2023-01-28T06:40:29.811Z,20.10
2023-01-28T06:43:00.952Z,17.83
2023-01-28T06:45:30.217Z,16.88
2023-01-28T06:47:58.595Z,20.52
2023-01-28T06:50:27.665Z,17.13
2023-01-28T06:53:01.569Z,17.17
2023-01-28T06:55:34.073Z,16.90
2023-01-28T06:58:07.964Z,17.30
2023-01-28T07:00:40.878Z,20.15
2023-01-28T07:03:26.270Z,19.67
2023-01-28T07:05:54.858Z,17.23
2023-01-28T07:08:23.431Z,17.70
2023-01-28T07:10:54.303Z,22.20
2023-01-28T07:13:22.851Z,23.17
2023-01-28T07:15:51.734Z,20.77
2023-01-28T07:18:20.923Z,21.90
2023-01-28T07:20:49.724Z,20.42
2023-01-28T07:23:21.338Z,18.58
2023-01-28T07:25:53.434Z,19.10
2023-01-28T07:28:22.649Z,21.05
2023-01-28T07:30:54.086Z,22.02
2023-01-28T07:33:25.143Z,24.30
2023-01-28T07:35:54.736Z,24.15
2023-01-28T07:38:25.751Z,22.85
2023-01-28T07:40:54.457Z,21.45
2023-01-28T07:43:26.473Z,22.25
2023-01-28T07:46:01.039Z,19.45
2023-01-28T07:48:31.523Z,24.42
2023-01-28T07:51:02.713Z,23.42
2023-01-28T07:53:33.004Z,22.88
2023-01-28T07:56:02.444Z,23.08
2023-01-28T07:58:37.634Z,25.65
2023-01-28T08:01:06.335Z,18.45
2023-01-28T08:03:40.074Z,18.42
2023-01-28T08:06:09.156Z,19.13
2023-01-28T08:08:37.778Z,24.13
2023-01-28T08:11:12.411Z,16.38
2023-01-28T08:13:44.367Z,17.00
2023-01-28T08:16:14.830Z,20.50
2023-01-28T08:18:43.347Z,18.77
2023-01-28T08:21:12.705Z,19.70
2023-01-28T08:23:43.723Z,20.67
2023-01-28T08:26:12.279Z,20.58
2023-01-28T08:28:44.454Z,16.55
2023-01-28T08:31:16.145Z,17.08
2023-01-28T08:33:47.427Z,23.27
2023-01-28T08:36:16.652Z,18.45
2023-01-28T08:38:45.791Z,20.52
2023-01-28T08:41:14.938Z,26.23
2023-01-28T08:43:44.296Z,22.98
2023-01-28T08:46:14.051Z,24.30
2023-01-28T08:48:44.836Z,21.70
2023-01-28T08:51:14.092Z,18.23
2023-01-28T08:53:45.935Z,21.10
2023-01-28T08:56:20.253Z,20.02
2023-01-28T08:58:51.230Z,20.52
2023-01-28T09:01:21.489Z,21.48
2023-01-28T09:03:51.264Z,22.08
2023-01-28T09:06:20.064Z,22.30
2023-01-28T09:08:49.374Z,18.83
2023-01-28T09:11:18.665Z,22.88
2023-01-28T09:13:46.947Z,24.92
2023-01-28T09:16:15.862Z,26.52
2023-01-28T09:18:45.995Z,25.15
2023-01-28T09:21:14.718Z,26.23
2023-01-28T09:23:45.049Z,24.98
2023-01-28T09:26:13.739Z,20.45
2023-01-28T09:28:42.295Z,25.20
2023-01-28T09:31:12.961Z,26.73
2023-01-28T09:33:44.008Z,31.73
2023-01-28T09:36:12.529Z,32.78
2023-01-28T09:38:41.432Z,29.77
2023-01-28T09:41:16.308Z,31.08
2023-01-28T09:43:51.349Z,39.40
2023-01-28T09:46:19.841Z,27.40
2023-01-28T09:48:51.930Z,28.85
2023-01-28T09:51:29.231Z,29.10
2023-01-28T09:53:59.786Z,27.58
2023-01-28T09:56:37.633Z,28.17
2023-01-28T09:59:21.220Z,30.58
2023-01-28T10:01:54.423Z,29.60
2023-01-28T10:04:23.419Z,30.02
2023-01-28T10:06:56.891Z,32.58
2023-01-28T10:09:49.379Z,32.08
2023-01-28T10:12:24.839Z,27.48
2023-01-28T10:15:02.027Z,30.00
2023-01-28T10:17:31.911Z,26.02
2023-01-28T10:20:30.948Z,27.35
2023-01-28T10:23:05.672Z,29.27
2023-01-28T10:25:34.570Z,36.58
2023-01-28T10:28:03.891Z,29.77
2023-01-28T10:30:36.284Z,34.72
2023-01-28T10:33:15.395Z,34.40
2023-01-28T10:35:48.027Z,32.75
2023-01-28T10:38:18.272Z,29.52
2023-01-28T10:40:48.218Z,31.85
2023-01-28T10:43:26.397Z,28.15
2023-01-28T10:45:54.903Z,35.85
2023-01-28T10:48:30.295Z,39.75
2023-01-28T10:51:06.063Z,45.40
2023-01-28T10:53:43.767Z,30.90
2023-01-28T10:56:38.589Z,29.85
2023-01-28T10:59:20.716Z,33.45
2023-01-28T11:01:56.027Z,37.50
2023-01-28T11:04:27.701Z,30.83
2023-01-28T11:06:57.780Z,34.17
2023-01-28T11:09:31.437Z,31.58
2023-01-28T11:12:35.020Z,30.63
2023-01-28T11:15:05.366Z,30.27
2023-01-28T11:17:50.000Z,36.40
2023-01-28T11:20:23.162Z,31.63
2023-01-28T11:22:54.835Z,36.90
2023-01-28T11:25:30.292Z,31.30
2023-01-28T11:28:03.186Z,31.38
2023-01-28T11:30:37.061Z,31.98
2023-01-28T11:33:24.914Z,34.83
2023-01-28T11:35:57.864Z,29.88
2023-01-28T11:38:28.890Z,31.60
2023-01-28T11:40:58.284Z,41.03
2023-01-28T11:43:29.104Z,34.33
2023-01-28T11:46:14.441Z,42.17
2023-01-28T11:49:09.035Z,34.92
2023-01-28T11:51:47.314Z,33.63
2023-01-28T11:54:15.410Z,37.55
2023-01-28T11:56:45.616Z,38.45
2023-01-28T11:59:22.858Z,31.25
2023-01-28T12:02:02.085Z,40.28
2023-01-28T12:05:06.031Z,33.38
2023-01-28T12:07:49.052Z,32.15
2023-01-28T12:10:35.730Z,37.10
2023-01-28T12:13:10.801Z,30.20
2023-01-28T12:15:51.221Z,33.17
2023-01-28T12:18:22.206Z,30.17
2023-01-28T12:21:16.195Z,35.33
2023-01-28T12:23:51.028Z,31.25
2023-01-28T12:26:25.264Z,35.38
2023-01-28T12:28:53.294Z,29.85
2023-01-28T12:31:27.834Z,34.20
2023-01-28T12:34:14.675Z,35.05
2023-01-28T12:36:53.308Z,29.13
2023-01-28T12:39:24.200Z,26.48
2023-01-28T12:41:55.474Z,33.10
2023-01-28T12:44:32.167Z,34.72
2023-01-28T12:47:07.150Z,28.90
2023-01-28T12:49:41.256Z,27.17
2023-01-28T12:52:28.431Z,27.00
2023-01-28T12:55:02.122Z,29.63
2023-01-28T12:57:33.556Z,27.60
2023-01-28T13:00:22.969Z,26.33
2023-01-28T13:03:04.732Z,26.38
2023-01-28T13:05:39.468Z,26.42
2023-01-28T13:08:12.832Z,19.65
2023-01-28T13:13:14.793Z,20.40
2023-01-28T13:15:44.789Z,19.88
2023-01-28T13:18:30.772Z,20.65
2023-01-28T13:21:02.039Z,22.80
2023-01-28T13:23:39.709Z,21.63
2023-01-28T13:26:19.901Z,20.77
2023-01-28T13:28:49.133Z,31.70
2023-01-28T13:31:24.758Z,23.08
2023-01-28T13:33:55.841Z,21.95
2023-01-28T13:36:30.760Z,18.42
2023-01-28T13:39:16.363Z,20.63
2023-01-28T13:41:46.278Z,19.98
2023-01-28T13:44:26.846Z,19.55
2023-01-28T13:47:15.077Z,19.58
2023-01-28T13:49:49.955Z,19.88
2023-01-28T13:52:23.649Z,14.20
2023-01-28T13:54:58.155Z,21.15
2023-01-28T13:57:35.629Z,23.13
2023-01-28T14:00:06.897Z,27.35
2023-01-28T14:02:50.581Z,21.98
2023-01-28T14:05:21.668Z,21.92
2023-01-28T14:08:12.762Z,21.00
2023-01-28T14:10:59.288Z,25.52
2023-01-28T14:13:40.325Z,26.35
2023-01-28T14:16:30.579Z,26.60
2023-01-28T14:19:01.825Z,17.45
2023-01-28T14:21:34.944Z,22.45
2023-01-28T14:24:03.206Z,23.65
2023-01-28T14:26:55.148Z,22.83
2023-01-28T14:29:34.237Z,20.17
2023-01-28T14:32:06.684Z,23.02
2023-01-28T14:34:38.121Z,24.67
2023-01-28T14:37:08.878Z,27.40
2023-01-28T14:39:40.916Z,27.20
2023-01-28T14:42:14.187Z,25.45
2023-01-28T14:44:45.298Z,21.02
2023-01-28T14:47:22.864Z,26.02
2023-01-28T14:50:14.556Z,27.38
2023-01-28T14:53:03.073Z,22.92
2023-01-28T14:55:41.553Z,21.13
2023-01-28T14:58:21.264Z,24.10
2023-01-28T15:00:56.764Z,22.75
2023-01-28T15:03:25.864Z,21.17
2023-01-28T15:06:13.330Z,22.70
2023-01-28T15:08:44.846Z,28.77
2023-01-28T15:11:21.888Z,20.52
2023-01-28T15:13:53.498Z,20.52
2023-01-28T15:16:28.535Z,21.67
2023-01-28T15:19:01.533Z,24.63
2023-01-28T15:21:30.823Z,18.70
2023-01-28T15:24:01.144Z,18.17
2023-01-28T15:26:34.546Z,21.33
2023-01-28T15:29:09.430Z,22.55
2023-01-28T15:31:39.157Z,21.40
2023-01-28T15:34:15.362Z,25.88
2023-01-28T15:36:44.025Z,25.48
2023-01-28T15:39:15.327Z,24.10
2023-01-28T15:41:47.399Z,27.75
2023-01-28T15:44:24.127Z,28.83
2023-01-28T15:46:52.767Z,25.65
2023-01-28T15:49:22.393Z,27.65
2023-01-28T15:51:53.007Z,30.05
2023-01-28T15:54:21.705Z,26.42
2023-01-28T15:56:50.340Z,27.15
2023-01-28T15:59:21.849Z,26.85
2023-01-28T16:02:04.175Z,30.33
2023-01-28T16:04:32.868Z,28.60
2023-01-28T16:07:05.016Z,28.65
2023-01-28T16:09:34.577Z,26.60
2023-01-28T16:12:09.706Z,24.38
2023-01-28T16:14:49.894Z,28.48
2023-01-28T16:17:22.573Z,29.30
2023-01-28T16:20:02.257Z,29.42
2023-01-28T16:22:32.568Z,44.40
2023-01-28T16:25:01.101Z,97.57
2023-01-28T16:27:32.357Z,42.47
2023-01-28T16:30:01.971Z,31.80
2023-01-28T16:32:50.417Z,40.35
2023-01-28T16:35:47.217Z,43.13
2023-01-28T16:38:21.982Z,36.35
2023-01-28T16:40:53.778Z,34.20
2023-01-28T16:43:22.359Z,40.83
2023-01-28T16:45:52.066Z,31.95
2023-01-28T16:48:21.541Z,33.05
2023-01-28T16:50:51.614Z,40.95
2023-01-28T16:53:21.710Z,43.08
2023-01-28T16:55:51.948Z,43.20
2023-01-28T16:58:24.396Z,40.20
2023-01-28T17:00:53.205Z,46.47
2023-01-28T17:03:24.784Z,49.83
2023-01-28T17:05:59.398Z,51.17
2023-01-28T17:08:28.466Z,52.50
2023-01-28T17:10:57.175Z,44.88
2023-01-28T17:13:25.507Z,49.83
2023-01-28T17:15:56.483Z,50.28
2023-01-28T17:18:24.842Z,47.40
2023-01-28T17:20:53.802Z,46.53
2023-01-28T17:23:24.151Z,52.53
2023-01-28T17:25:52.278Z,47.10
2023-01-28T17:28:21.417Z,41.83
2023-01-28T17:30:49.697Z,39.40
2023-01-28T17:33:30.563Z,34.95
2023-01-28T17:35:59.563Z,35.35
2023-01-28T17:38:29.312Z,33.35
2023-01-28T17:41:07.710Z,38.53
2023-01-28T17:43:36.235Z,35.00
2023-01-28T17:46:15.274Z,38.58
2023-01-28T17:48:45.731Z,36.15
2023-01-28T17:51:16.846Z,96.75
2023-01-28T17:53:47.959Z,47.35
2023-01-28T17:56:19.092Z,52.10
2023-01-28T17:58:54.685Z,39.10
2023-01-28T18:01:27.132Z,42.47
2023-01-28T18:03:56.351Z,42.08
2023-01-28T18:06:32.559Z,42.28
2023-01-28T18:09:04.594Z,41.50
2023-01-28T18:11:38.494Z,38.53
2023-01-28T18:14:07.648Z,42.72
2023-01-28T18:16:36.184Z,43.83
2023-01-28T18:19:06.257Z,48.67
2023-01-28T18:21:51.187Z,44.15
2023-01-28T18:24:21.557Z,46.20
2023-01-28T18:26:51.688Z,42.90
2023-01-28T18:29:23.843Z,45.72
2023-01-28T18:31:55.618Z,62.38
2023-01-28T18:34:24.902Z,66.78
2023-01-28T18:36:53.474Z,51.95
2023-01-28T18:39:23.256Z,51.65
2023-01-28T18:41:55.213Z,39.88
2023-01-28T18:44:24.457Z,43.67
2023-01-28T18:46:55.405Z,48.35
2023-01-28T18:49:26.872Z,38.17
2023-01-28T18:51:59.441Z,45.83
2023-01-28T18:54:34.301Z,45.65
2023-01-28T18:57:03.148Z,50.33
2023-01-28T18:59:33.509Z,47.65
2023-01-28T19:02:04.348Z,51.45
2023-01-28T19:04:34.890Z,51.42
2023-01-28T19:07:03.680Z,52.15
2023-01-28T19:09:34.793Z,51.13
2023-01-28T19:12:04.021Z,51.33
2023-01-28T19:14:35.889Z,54.92
2023-01-28T19:17:05.566Z,42.42
2023-01-28T19:19:34.307Z,50.55
2023-01-28T19:22:05.178Z,56.83
2023-01-28T19:24:35.179Z,48.22
2023-01-28T19:27:05.941Z,53.92
2023-01-28T19:29:34.865Z,58.85
2023-01-28T19:32:08.463Z,60.35
2023-01-28T19:34:38.689Z,45.38
2023-01-28T19:37:07.799Z,57.53
2023-01-28T19:39:38.952Z,54.25
2023-01-28T19:42:07.632Z,58.22
2023-01-28T19:44:37.603Z,45.50
2023-01-28T19:47:08.564Z,57.97
2023-01-28T19:49:38.480Z,58.83
2023-01-28T19:52:09.131Z,53.83
2023-01-28T19:54:39.179Z,54.80
2023-01-28T19:57:07.496Z,50.83
2023-01-28T19:59:39.675Z,54.55
2023-01-28T20:02:10.277Z,54.70
2023-01-28T20:04:54.833Z,48.28
2023-01-28T20:07:37.415Z,57.10
2023-01-28T20:10:09.691Z,56.47
2023-01-28T20:12:42.703Z,57.25
2023-01-28T20:15:13.677Z,57.60
2023-01-28T20:17:49.485Z,66.47
2023-01-28T20:20:18.135Z,62.22
2023-01-28T20:22:48.707Z,61.85
2023-01-28T20:25:17.839Z,63.35
2023-01-28T20:27:51.712Z,58.33
2023-01-28T20:30:20.686Z,60.10
2023-01-28T20:33:00.321Z,63.15
2023-01-28T20:35:28.774Z,67.88
2023-01-28T20:37:57.615Z,80.03
2023-01-28T20:40:27.903Z,82.95
2023-01-28T20:42:56.324Z,70.47
2023-01-28T20:45:26.083Z,67.43
2023-01-28T20:50:28.142Z,65.95
2023-01-28T20:52:58.851Z,73.15
2023-01-28T20:55:32.874Z,67.68
2023-01-28T20:58:03.415Z,62.72
2023-01-28T21:00:31.930Z,74.15
2023-01-28T21:03:11.074Z,66.82
2023-01-28T21:05:47.702Z,65.97
2023-01-28T21:08:18.310Z,69.70
2023-01-28T21:10:48.487Z,73.70
2023-01-28T21:13:19.269Z,68.97
2023-01-28T21:15:57.827Z,70.88
2023-01-28T21:18:26.871Z,73.03
2023-01-28T21:21:03.274Z,70.05
2023-01-28T21:23:33.383Z,75.95
2023-01-28T21:26:05.578Z,79.68
2023-01-28T21:28:34.122Z,75.90
2023-01-28T21:31:07.324Z,79.97
2023-01-28T21:33:39.434Z,77.63
2023-01-28T21:36:13.550Z,75.32
2023-01-28T21:38:45.895Z,76.45
2023-01-28T21:41:14.360Z,74.68
2023-01-28T21:43:50.007Z,74.35
2023-01-28T21:46:18.624Z,79.88
2023-01-28T21:48:47.897Z,73.55
2023-01-28T21:51:33.810Z,81.53
2023-01-28T21:54:07.176Z,79.03
2023-01-28T21:56:40.046Z,77.78
2023-01-28T21:59:25.837Z,80.50
2023-01-28T22:01:57.596Z,76.90
2023-01-28T22:04:27.597Z,80.05
2023-01-28T22:06:56.001Z,75.10
2023-01-28T22:09:24.480Z,69.03
2023-01-28T22:11:53.938Z,66.32
2023-01-28T22:14:23.102Z,69.75
2023-01-28T22:16:52.667Z,69.47
2023-01-28T22:19:23.382Z,71.53
2023-01-28T22:21:52.179Z,67.72
2023-01-28T22:24:22.442Z,66.65
2023-01-28T22:26:53.769Z,73.15
2023-01-28T22:29:26.960Z,74.90
2023-01-28T22:31:55.788Z,67.63
2023-01-28T22:34:24.850Z,73.72
2023-01-28T22:36:53.421Z,70.57
2023-01-28T22:39:22.672Z,68.72
2023-01-28T22:41:50.915Z,68.75
2023-01-28T22:44:20.800Z,71.60
2023-01-28T22:46:52.266Z,68.90
2023-01-28T22:49:23.507Z,66.35
2023-01-28T22:51:51.841Z,69.65
2023-01-28T22:54:20.297Z,76.20
2023-01-28T22:56:50.467Z,72.22
2023-01-28T22:59:18.979Z,72.65
2023-01-28T23:01:48.674Z,71.15
2023-01-28T23:04:17.411Z,73.63
2023-01-28T23:06:45.767Z,64.25
2023-01-28T23:09:15.430Z,71.97
2023-01-28T23:11:43.900Z,82.53
2023-01-28T23:14:30.110Z,81.18
2023-01-28T23:17:16.815Z,73.40
2023-01-28T23:20:05.873Z,79.80
2023-01-28T23:22:54.804Z,77.13
2023-01-28T23:25:24.042Z,77.63
2023-01-28T23:27:52.514Z,79.60
2023-01-28T23:30:25.139Z,79.43
2023-01-28T23:33:06.684Z,78.18
2023-01-28T23:35:35.378Z,73.63
2023-01-28T23:38:05.926Z,80.07
2023-01-28T23:40:34.486Z,85.18
2023-01-28T23:43:04.455Z,80.88
2023-01-28T23:45:34.507Z,82.75
2023-01-28T23:48:04.291Z,79.68
2023-01-28T23:50:33.655Z,90.05
2023-01-28T23:53:02.883Z,87.80
2023-01-28T23:55:34.532Z,84.07
2023-01-28T23:58:03.670Z,87.28
